West Brooklyn, Illinois
Current Conditions -  °F | °C
As of 2:55 AM on Thursday 23 Oct 2014 (Local Time) from KRPJ Reporting Station
Haze Haze  
Wind Chill: 29°   Ceiling: Unl
Heat Index: 33°   Visibility: 5mi
Dew Point: 32°   Wind: 5mph
Humidity: 96%   Direction: 140°SE
Pressure: 30.22"   Gusts: NA
Location:  41.69°N, 89.15°W
Report Text: KRPJ 230755Z AUTO 14004KT 5SM BR CLR 01/00 A3022 RMK AO2 T00080002
Loading
Personal Weather Stations






























Interactive Weather Map
Tropical Storm Tracking
New forecast layout! Learn more

10-Day Weather Forecast

Advertisements
Track Severe Weather on mobile